Time;durP1;ratioP1;P1;durP2;ratioP2;P2;SDS_P1;SDS_P2;PMS_P1;PMS_P2;Temp;Humidity;BMP_temperature;BMP_pressure;BME280_temperature;BME280_humidity;BME280_pressure;Samples;Min_cycle;Max_cycle;Signal;HPM_P1;HPM_P2
2024/01/10 00:01:31;;;;;;;13.65;4.35;;;;;;;-4.84;100.00;98922.69;5145268;27;20084;-74
2024/01/10 00:03:57;;;;;;;7.45;4.43;;;;;;;-4.89;100.00;98924.34;5124236;27;20034;-74
2024/01/10 00:06:23;;;;;;;12.98;4.95;;;;;;;-4.90;100.00;98939.09;5156275;27;20553;-73
2024/01/10 00:08:49;;;;;;;15.13;5.07;;;;;;;-5.08;100.00;98939.59;5138881;27;20026;-74
2024/01/10 00:11:15;;;;;;;9.27;4.28;;;;;;;-4.93;100.00;98945.13;5156364;27;20018;-74
2024/01/10 00:13:43;;;;;;;10.50;5.57;;;;;;;-4.88;100.00;98941.72;5138475;27;20033;-73
2024/01/10 00:16:09;;;;;;;9.63;4.50;;;;;;;-4.81;100.00;98944.50;5138666;27;20552;-74
2024/01/10 00:18:34;;;;;;;8.55;4.25;;;;;;;-5.02;100.00;98939.72;5155912;27;20033;-73
2024/01/10 00:21:00;;;;;;;9.93;4.25;;;;;;;-5.05;100.00;98929.22;5156245;27;20026;-74
2024/01/10 00:23:26;;;;;;;12.43;4.38;;;;;;;-5.08;100.00;98934.38;5174506;27;20041;-75
2024/01/10 00:25:51;;;;;;;11.77;5.05;;;;;;;-5.02;100.00;98931.91;5156290;27;20108;-74
2024/01/10 00:28:17;;;;;;;13.15;5.45;;;;;;;-4.96;100.00;98941.56;5130734;27;20070;-73
2024/01/10 00:30:44;;;;;;;14.55;5.70;;;;;;;-4.89;100.00;98934.75;5134949;27;20035;-73
2024/01/10 00:33:11;;;;;;;10.82;5.05;;;;;;;-4.84;100.00;98935.72;5117809;27;20228;-73
2024/01/10 00:35:36;;;;;;;11.55;4.57;;;;;;;-4.89;100.00;98926.94;5153248;27;20056;-73
2024/01/10 00:38:02;;;;;;;9.75;4.47;;;;;;;-4.75;100.00;98942.03;5135076;27;20054;-74
2024/01/10 00:40:28;;;;;;;6.93;3.80;;;;;;;-4.68;100.00;98936.09;5153261;27;20023;-74
2024/01/10 00:42:53;;;;;;;10.05;4.47;;;;;;;-4.73;100.00;98922.03;5134830;27;20031;-74
2024/01/10 00:45:19;;;;;;;9.68;4.32;;;;;;;-4.65;100.00;98930.03;5153225;27;20025;-74
2024/01/10 00:47:45;;;;;;;11.63;4.07;;;;;;;-4.64;100.00;98931.78;5137263;27;20026;-73
2024/01/10 00:50:11;;;;;;;11.32;4.97;;;;;;;-4.62;100.00;98923.16;5123358;27;20406;-75
2024/01/10 00:52:37;;;;;;;11.15;5.65;;;;;;;-4.53;100.00;98930.28;5134598;27;20065;-74
2024/01/10 00:55:03;;;;;;;16.70;5.53;;;;;;;-4.54;100.00;98931.13;5134643;27;20033;-73
2024/01/10 00:57:29;;;;;;;8.77;4.65;;;;;;;-4.45;100.00;98934.78;5134648;27;20493;-73
2024/01/10 00:59:54;;;;;;;12.50;5.38;;;;;;;-4.40;100.00;98940.13;5134257;27;20039;-74
2024/01/10 01:02:20;;;;;;;9.77;4.90;;;;;;;-4.33;100.00;98933.25;5153043;27;20030;-74
2024/01/10 01:04:45;;;;;;;8.25;4.03;;;;;;;-4.32;100.00;98930.69;5134287;27;20113;-74
2024/01/10 01:07:11;;;;;;;13.18;4.97;;;;;;;-4.35;100.00;98928.00;5117018;27;20405;-73
2024/01/10 01:09:36;;;;;;;14.05;5.00;;;;;;;-4.39;100.00;98920.97;5116914;27;20107;-74
2024/01/10 01:12:02;;;;;;;10.77;5.00;;;;;;;-4.38;100.00;98927.97;5117216;27;20072;-74
2024/01/10 01:14:28;;;;;;;11.80;5.20;;;;;;;-4.46;100.00;98926.94;5117077;27;20022;-74
2024/01/10 01:16:53;;;;;;;8.65;4.05;;;;;;;-4.50;100.00;98930.34;5152505;27;20026;-74
2024/01/10 01:19:19;;;;;;;12.77;4.43;;;;;;;-4.44;100.00;98927.84;5152801;27;20026;-74
2024/01/10 01:21:45;;;;;;;11.85;5.15;;;;;;;-4.59;100.00;98931.03;5151290;27;20026;-74
2024/01/10 01:24:11;;;;;;;11.98;4.32;;;;;;;-4.78;100.00;98933.25;5152696;27;20091;-74
2024/01/10 01:26:37;;;;;;;11.07;4.00;;;;;;;-4.74;100.00;98933.34;5151211;27;20448;-74
2024/01/10 01:29:03;;;;;;;7.47;4.18;;;;;;;-4.82;100.00;98927.09;5152626;27;20072;-73
2024/01/10 01:31:28;;;;;;;12.73;5.25;;;;;;;-4.77;100.00;98929.81;5151287;27;20500;-73
2024/01/10 01:33:54;;;;;;;18.98;4.60;;;;;;;-4.73;100.00;98932.47;5133773;27;20027;-74
2024/01/10 01:36:19;;;;;;;9.30;4.47;;;;;;;-4.59;100.00;98924.94;5151271;27;20031;-73
2024/01/10 01:38:45;;;;;;;11.95;4.68;;;;;;;-4.62;100.00;98924.88;5127261;27;20030;-73
2024/01/10 01:41:10;;;;;;;8.90;3.40;;;;;;;-4.72;100.00;98913.38;5133954;27;20117;-73
2024/01/10 01:43:36;;;;;;;7.97;3.55;;;;;;;-4.72;100.00;98923.81;5133999;27;20019;-73
2024/01/10 01:46:03;;;;;;;12.38;4.40;;;;;;;-4.74;100.00;98916.81;5133613;27;20069;-73
2024/01/10 01:48:29;;;;;;;12.70;4.75;;;;;;;-4.69;100.00;98917.78;5151131;27;20053;-73
2024/01/10 01:50:57;;;;;;;9.27;4.53;;;;;;;-4.79;100.00;98914.09;5150967;27;20105;-74
2024/01/10 01:53:23;;;;;;;7.20;3.95;;;;;;;-4.71;100.00;98903.81;5151204;27;20018;-74
2024/01/10 01:55:49;;;;;;;7.57;3.83;;;;;;;-4.93;100.00;98907.72;5150763;27;20095;-73
2024/01/10 01:58:15;;;;;;;9.00;3.20;;;;;;;-4.76;100.00;98908.06;5150912;27;20026;-74
2024/01/10 02:00:41;;;;;;;23.08;5.47;;;;;;;-4.86;100.00;98906.97;5150889;27;20544;-74
2024/01/10 02:03:08;;;;;;;13.27;4.53;;;;;;;-4.79;100.00;98905.38;5152174;27;20121;-74
2024/01/10 02:05:34;;;;;;;7.32;3.83;;;;;;;-4.85;100.00;98902.66;5152221;27;20086;-73
2024/01/10 02:08:00;;;;;;;10.35;4.10;;;;;;;-4.85;100.00;98894.81;5133441;27;20038;-74
2024/01/10 02:10:25;;;;;;;12.65;4.78;;;;;;;-4.81;100.00;98892.31;5152179;27;20419;-73
2024/01/10 02:12:51;;;;;;;7.07;3.75;;;;;;;-4.84;100.00;98899.19;5151888;27;20105;-73
2024/01/10 02:15:17;;;;;;;8.40;3.92;;;;;;;-5.02;100.00;98874.53;5151967;27;20033;-73
2024/01/10 02:17:43;;;;;;;7.80;3.85;;;;;;;-4.86;100.00;98887.88;5152258;27;20026;-74
2024/01/10 02:20:16;;;;;;;14.55;4.05;;;;;;;-4.85;100.00;98879.16;5135799;27;20018;-73
2024/01/10 02:22:42;;;;;;;8.88;4.13;;;;;;;-4.91;100.00;98892.97;5137475;27;20451;-74
2024/01/10 02:25:11;;;;;;;9.15;3.97;;;;;;;-4.83;100.00;98898.38;5137536;27;20054;-74
2024/01/10 02:27:37;;;;;;;6.63;3.25;;;;;;;-4.99;100.00;98887.63;5156240;27;20019;-73
2024/01/10 02:30:04;;;;;;;7.75;3.53;;;;;;;-5.04;100.00;98888.34;5120139;27;20042;-74
2024/01/10 02:32:30;;;;;;;8.63;3.47;;;;;;;-5.02;100.00;98898.00;5137553;27;20037;-73
2024/01/10 02:34:55;;;;;;;10.52;3.33;;;;;;;-5.02;100.00;98898.00;5137406;27;20015;-73
2024/01/10 02:37:21;;;;;;;7.28;3.53;;;;;;;-5.13;100.00;98891.66;5129497;27;20058;-73
2024/01/10 02:39:47;;;;;;;6.47;3.65;;;;;;;-5.15;100.00;98895.97;5154647;27;20026;-73
2024/01/10 02:42:12;;;;;;;5.90;3.67;;;;;;;-5.21;100.00;98906.28;5154189;27;20393;-74
2024/01/10 02:44:38;;;;;;;9.65;3.72;;;;;;;-5.19;100.00;98907.16;5137185;27;20092;-73
2024/01/10 02:47:05;;;;;;;7.68;4.00;;;;;;;-5.27;100.00;98900.94;5136838;27;20042;-74
2024/01/10 02:49:30;;;;;;;6.35;3.47;;;;;;;-5.29;100.00;98905.19;5154532;27;20098;-75
2024/01/10 02:51:56;;;;;;;13.88;3.83;;;;;;;-5.33;100.00;98910.34;5154210;27;20112;-73
2024/01/10 02:54:22;;;;;;;6.60;3.53;;;;;;;-5.37;100.00;98896.34;5154067;27;20019;-73
2024/01/10 02:56:47;;;;;;;7.80;3.50;;;;;;;-5.35;100.00;98897.25;5125385;27;20496;-74
2024/01/10 02:59:13;;;;;;;8.63;4.00;;;;;;;-5.29;100.00;98894.78;5154901;27;20066;-74
2024/01/10 03:01:38;;;;;;;16.42;3.50;;;;;;;-5.23;100.00;98897.50;5119609;27;20057;-75
2024/01/10 03:04:04;;;;;;;10.10;4.03;;;;;;;-5.18;100.00;98900.22;5119388;27;20075;-74
2024/01/10 03:06:29;;;;;;;9.35;3.88;;;;;;;-5.24;100.00;98894.88;5136814;27;20453;-74
2024/01/10 03:08:55;;;;;;;9.18;3.72;;;;;;;-5.29;100.00;98900.00;5136887;27;20123;-74
2024/01/10 03:11:21;;;;;;;9.68;4.25;;;;;;;-5.31;100.00;98882.56;5136265;27;20025;-75
2024/01/10 03:13:47;;;;;;;8.55;4.03;;;;;;;-5.43;100.00;98880.56;5137062;27;20019;-74
2024/01/10 03:16:14;;;;;;;9.68;4.20;;;;;;;-5.38;100.00;98891.13;5127220;27;20025;-73
2024/01/10 03:18:39;;;;;;;8.80;4.20;;;;;;;-5.45;100.00;98889.22;5111746;27;20041;-74
2024/01/10 03:21:05;;;;;;;19.08;5.32;;;;;;;-5.48;100.00;98887.44;5154848;27;20027;-74
2024/01/10 03:23:31;;;;;;;9.60;5.05;;;;;;;-5.53;100.00;98887.31;5119174;27;20035;-74
2024/01/10 03:25:57;;;;;;;12.57;4.95;;;;;;;-5.43;100.00;98888.38;5136405;27;20151;-74
2024/01/10 03:28:23;;;;;;;14.43;5.82;;;;;;;-5.50;100.00;98879.56;5144261;27;20472;-74
2024/01/10 03:30:49;;;;;;;16.52;6.88;;;;;;;-5.56;100.00;98881.13;5132876;27;20467;-74
2024/01/10 03:33:15;;;;;;;12.32;6.10;;;;;;;-5.61;100.00;98878.44;5115574;27;20098;-75
2024/01/10 03:35:41;;;;;;;9.68;4.22;;;;;;;-5.61;100.00;98880.16;5115660;27;20027;-73
2024/01/10 03:38:07;;;;;;;15.38;6.00;;;;;;;-5.75;100.00;98878.97;5134185;27;20034;-72
2024/01/10 03:40:33;;;;;;;13.27;5.30;;;;;;;-5.75;100.00;98873.78;5133680;27;20031;-73
2024/01/10 03:42:59;;;;;;;11.73;5.45;;;;;;;-5.76;100.00;98874.59;5126897;27;20041;-72
2024/01/10 03:45:24;;;;;;;11.85;5.30;;;;;;;-5.79;100.00;98864.13;5099615;27;20490;-73
2024/01/10 03:47:50;;;;;;;10.93;4.60;;;;;;;-5.78;100.00;98878.91;5118784;27;20035;-73
2024/01/10 03:50:20;;;;;;;16.50;6.55;;;;;;;-5.90;100.00;98863.88;5154296;27;20031;-73
2024/01/10 03:52:46;;;;;;;14.43;5.78;;;;;;;-5.84;100.00;98874.41;5118364;27;20087;-73
2024/01/10 03:55:13;;;;;;;13.82;6.22;;;;;;;-5.85;100.00;98877.88;5136058;27;20509;-73
2024/01/10 03:57:39;;;;;;;14.13;6.60;;;;;;;-5.85;100.00;98882.25;5098510;27;20035;-74
2024/01/10 04:00:09;;;;;;;11.70;5.43;;;;;;;-5.83;100.00;98875.28;5138026;27;20127;-74
2024/01/10 04:02:37;;;;;;;15.82;5.68;;;;;;;-5.85;100.00;98880.50;5138903;27;20067;-73
2024/01/10 04:05:06;;;;;;;20.40;7.00;;;;;;;-5.88;100.00;98882.16;5175078;27;20389;-74
2024/01/10 04:07:33;;;;;;;12.75;6.00;;;;;;;-5.97;100.00;98881.94;5156092;27;20026;-74
2024/01/10 04:09:58;;;;;;;11.18;5.03;;;;;;;-5.97;100.00;98880.22;5156376;27;20026;-73
2024/01/10 04:12:24;;;;;;;24.52;9.18;;;;;;;-6.03;100.00;98878.34;5156189;27;20029;-74
2024/01/10 04:14:49;;;;;;;15.93;5.45;;;;;;;-6.01;100.00;98882.72;5156179;27;20071;-73
2024/01/10 04:17:15;;;;;;;11.50;5.60;;;;;;;-6.04;100.00;98886.13;5174933;27;20026;-74
2024/01/10 04:19:41;;;;;;;18.00;6.05;;;;;;;-6.14;100.00;98898.03;5174803;27;20030;-74
2024/01/10 04:22:06;;;;;;;8.95;4.28;;;;;;;-6.19;100.00;98894.44;5155908;27;20059;-74
2024/01/10 04:24:32;;;;;;;21.23;7.28;;;;;;;-6.17;100.00;98908.38;5155858;27;20077;-78
2024/01/10 04:26:57;;;;;;;17.80;7.68;;;;;;;-6.22;100.00;98896.97;5147826;27;20022;-79
2024/01/10 04:29:23;;;;;;;19.88;7.72;;;;;;;-6.22;100.00;98904.78;5172507;27;20038;-78
2024/01/10 04:31:48;;;;;;;25.40;11.10;;;;;;;-6.15;100.00;98911.00;5169672;27;20459;-71
2024/01/10 04:34:14;;;;;;;16.35;7.72;;;;;;;-6.18;100.00;98906.59;5128484;27;20047;-76
2024/01/10 04:36:40;;;;;;;14.13;6.30;;;;;;;-6.12;100.00;98909.34;5162141;27;20033;-75
2024/01/10 04:39:05;;;;;;;13.15;6.78;;;;;;;-6.08;100.00;98906.00;5156350;27;20114;-77
2024/01/10 04:41:31;;;;;;;11.45;5.80;;;;;;;-6.13;100.00;98892.00;5149745;27;20514;-78
2024/01/10 04:43:57;;;;;;;13.35;6.53;;;;;;;-6.05;100.00;98899.97;5155064;27;20030;-78
2024/01/10 04:46:23;;;;;;;19.45;7.45;;;;;;;-6.13;100.00;98901.53;5146141;27;20034;-78
2024/01/10 04:48:48;;;;;;;15.52;6.88;;;;;;;-6.17;100.00;98902.28;5154874;27;20092;-78
2024/01/10 04:51:14;;;;;;;17.33;8.20;;;;;;;-6.08;100.00;98912.91;5163673;27;20375;-78
2024/01/10 04:53:40;;;;;;;15.02;6.97;;;;;;;-6.07;100.00;98902.56;5120723;27;20023;-80
2024/01/10 04:56:06;;;;;;;15.05;6.20;;;;;;;-6.10;100.00;98910.28;5130422;27;20022;-76
2024/01/10 04:58:32;;;;;;;18.80;7.88;;;;;;;-6.17;100.00;98905.75;5117511;27;20022;-77
2024/01/10 05:00:58;;;;;;;22.23;9.75;;;;;;;-6.34;100.00;98908.78;5143347;27;20050;-77
2024/01/10 05:03:25;;;;;;;14.35;6.70;;;;;;;-6.35;100.00;98913.09;5140295;27;20049;-76
2024/01/10 05:05:51;;;;;;;28.58;6.80;;;;;;;-6.62;100.00;98883.75;5131868;27;20117;-77
2024/01/10 05:08:20;;;;;;;14.20;7.15;;;;;;;-6.55;100.00;98905.63;5123450;27;20117;-76
2024/01/10 05:10:46;;;;;;;14.18;6.30;;;;;;;-6.61;100.00;98907.19;5129749;27;20022;-79
2024/01/10 05:13:12;;;;;;;21.83;9.07;;;;;;;-6.58;100.00;98922.00;5133780;27;20029;-81
2024/01/10 05:15:38;;;;;;;18.88;6.05;;;;;;;-6.65;100.00;98920.97;5146197;27;20516;-77
2024/01/10 05:18:04;;;;;;;7.82;4.47;;;;;;;-6.93;100.00;98900.25;5122711;27;20031;-78
2024/01/10 05:20:29;;;;;;;19.92;7.13;;;;;;;-6.87;100.00;98929.03;5137241;27;20023;-78
2024/01/10 05:22:58;;;;;;;26.08;11.27;;;;;;;-7.03;100.00;98926.81;5140349;27;20026;-78
2024/01/10 05:25:27;;;;;;;25.92;10.93;;;;;;;-7.17;100.00;98928.16;5140596;27;20022;-77
2024/01/10 05:27:53;;;;;;;23.65;9.88;;;;;;;-7.25;100.00;98925.31;5153062;27;20113;-77
2024/01/10 05:30:18;;;;;;;27.50;10.45;;;;;;;-7.37;100.00;98924.94;5140942;27;20125;-78
2024/01/10 05:32:44;;;;;;;23.65;11.32;;;;;;;-7.34;100.00;98944.94;5128562;27;20015;-78
2024/01/10 05:35:10;;;;;;;32.47;10.98;;;;;;;-7.38;100.00;98937.91;5128982;27;20026;-77
2024/01/10 05:37:36;;;;;;;26.42;11.02;;;;;;;-7.37;100.00;98940.53;5140062;27;20034;-77
2024/01/10 05:40:04;;;;;;;27.65;11.77;;;;;;;-7.39;100.00;98936.13;5142448;27;20451;-77
2024/01/10 05:42:30;;;;;;;42.92;18.55;;;;;;;-7.28;100.00;98951.19;5152796;27;20050;-77
2024/01/10 05:44:55;;;;;;;33.28;12.40;;;;;;;-7.28;100.00;98953.78;5142507;27;20062;-76
2024/01/10 05:47:21;;;;;;;24.77;11.55;;;;;;;-7.26;100.00;98946.91;5152499;27;20031;-77
2024/01/10 05:49:46;;;;;;;26.95;12.93;;;;;;;-7.21;100.00;98953.16;5134146;27;20023;-79
2024/01/10 05:52:12;;;;;;;29.23;11.93;;;;;;;-7.20;100.00;98960.09;5144430;27;20133;-78
2024/01/10 05:54:39;;;;;;;20.85;11.18;;;;;;;-7.19;100.00;98960.97;5119340;27;20093;-78
2024/01/10 05:57:04;;;;;;;21.83;10.13;;;;;;;-7.19;100.00;98960.97;5146718;27;20018;-77
2024/01/10 05:59:30;;;;;;;17.10;8.98;;;;;;;-7.29;100.00;98959.81;5150872;27;20034;-78
2024/01/10 06:01:58;;;;;;;20.83;8.05;;;;;;;-7.29;100.00;98956.38;5150052;27;20485;-78
2024/01/10 06:04:24;;;;;;;18.85;9.43;;;;;;;-7.38;100.00;98954.34;5144998;27;20031;-77
2024/01/10 06:06:49;;;;;;;20.58;10.18;;;;;;;-7.30;100.00;98954.59;5143753;27;20018;-78
2024/01/10 06:09:21;;;;;;;22.38;10.70;;;;;;;-7.19;100.00;98956.66;5143229;27;20034;-77
2024/01/10 06:11:48;;;;;;;28.05;11.10;;;;;;;-7.15;100.00;98960.25;5148945;27;20034;-78
2024/01/10 06:14:13;;;;;;;22.13;10.57;;;;;;;-7.05;100.00;98953.59;5156817;27;20037;-77
2024/01/10 06:16:39;;;;;;;38.75;14.93;;;;;;;-7.00;100.00;98952.91;5149313;27;20023;-77
2024/01/10 06:19:05;;;;;;;38.05;15.15;;;;;;;-6.97;100.00;98957.31;5148927;27;20019;-77
2024/01/10 06:21:31;;;;;;;47.22;18.02;;;;;;;-6.90;100.00;98960.13;5149336;27;20482;-77
2024/01/10 06:23:57;;;;;;;35.90;13.85;;;;;;;-6.88;100.00;98949.75;5156383;27;20023;-76
2024/01/10 06:26:23;;;;;;;33.45;11.70;;;;;;;-6.80;100.00;98966.50;5145482;27;20039;-78
2024/01/10 06:28:48;;;;;;;24.70;10.68;;;;;;;-6.73;100.00;98953.69;5146314;27;20550;-78
2024/01/10 06:31:14;;;;;;;53.97;20.77;;;;;;;-6.68;100.00;98946.03;5143214;27;20052;-79
2024/01/10 06:33:40;;;;;;;28.08;10.93;;;;;;;-6.58;100.00;98948.03;5155865;27;20034;-78
2024/01/10 06:36:06;;;;;;;27.10;12.82;;;;;;;-6.44;100.00;98956.22;5156141;27;20010;-77
2024/01/10 06:38:31;;;;;;;21.95;10.75;;;;;;;-6.32;100.00;98951.34;5155761;27;20031;-77
2024/01/10 06:40:57;;;;;;;27.58;11.93;;;;;;;-6.20;100.00;98949.94;5155706;27;20022;-77
2024/01/10 06:43:23;;;;;;;30.30;12.90;;;;;;;-5.99;100.00;98957.41;5140175;27;20049;-78
2024/01/10 06:45:49;;;;;;;60.20;25.50;;;;;;;-6.03;100.00;98944.28;5150751;27;20485;-75
2024/01/10 06:48:15;;;;;;;73.10;26.85;;;;;;;-5.32;100.00;98952.06;5155141;27;20042;-76
2024/01/10 06:50:40;;;;;;;68.82;27.25;;;;;;;-4.54;100.00;98952.00;5128422;27;20029;-77
2024/01/10 06:53:06;;;;;;;60.78;25.20;;;;;;;-3.74;100.00;98940.41;5156422;27;20047;-78
2024/01/10 06:55:32;;;;;;;38.97;15.38;;;;;;;-3.55;100.00;98931.13;5145662;27;20038;-76
2024/01/10 06:57:58;;;;;;;30.70;13.93;;;;;;;-3.87;100.00;98928.88;5146007;27;20155;-77
2024/01/10 07:00:23;;;;;;;29.13;10.25;;;;;;;-4.02;100.00;98927.72;5147655;27;20358;-77
2024/01/10 07:02:49;;;;;;;23.23;10.50;;;;;;;-3.83;100.00;98937.66;5128054;27;20097;-77
2024/01/10 07:05:15;;;;;;;29.58;12.32;;;;;;;-3.30;100.00;98935.91;5144706;27;20053;-78
2024/01/10 07:07:41;;;;;;;36.45;12.90;;;;;;;-2.99;100.00;98932.84;5151452;27;20023;-79
2024/01/10 07:10:07;;;;;;;36.13;13.63;;;;;;;-3.13;100.00;98933.50;5119528;27;20026;-78
2024/01/10 07:12:34;;;;;;;22.00;9.50;;;;;;;-2.51;100.00;98923.84;5120520;27;20110;-78
2024/01/10 07:15:00;;;;;;;27.73;9.82;;;;;;;-1.64;100.00;98926.47;5145275;27;20003;-78
2024/01/10 07:17:25;;;;;;;19.55;8.73;;;;;;;-1.68;100.00;98912.44;5151790;27;20034;-78
2024/01/10 07:19:51;;;;;;;15.93;8.25;;;;;;;-1.51;100.00;98906.47;5154957;27;20023;-77
2024/01/10 07:22:20;;;;;;;15.73;6.60;;;;;;;-1.00;100.00;98905.91;5152103;27;20473;-77
2024/01/10 07:24:46;;;;;;;17.70;7.88;;;;;;;-0.37;99.18;98900.06;5154539;27;20444;-77
2024/01/10 07:27:14;;;;;;;24.27;9.95;;;;;;;-0.26;95.01;98898.31;5154544;27;20018;-77
2024/01/10 07:29:40;;;;;;;23.38;10.68;;;;;;;0.31;93.79;98903.66;5141185;27;20067;-77
2024/01/10 07:32:11;;;;;;;28.55;13.25;;;;;;;0.52;88.71;98906.28;5118598;27;20023;-76
2024/01/10 07:34:39;;;;;;;26.63;12.23;;;;;;;0.61;81.96;98896.66;5144638;27;20052;-77
2024/01/10 07:37:05;;;;;;;33.30;12.02;;;;;;;0.34;81.32;98887.03;5141248;27;20031;-77
2024/01/10 07:39:31;;;;;;;24.65;11.43;;;;;;;0.28;84.18;98887.00;5154365;27;20526;-76
2024/01/10 07:42:02;;;;;;;27.45;12.00;;;;;;;0.12;89.05;98901.03;5154587;27;20528;-77
2024/01/10 07:44:28;;;;;;;23.42;10.65;;;;;;;-0.23;88.27;98908.84;5154527;27;20056;-78
2024/01/10 07:47:01;;;;;;;27.13;10.85;;;;;;;-0.44;92.00;98908.78;5154538;27;20030;-79
2024/01/10 07:49:27;;;;;;;21.00;9.23;;;;;;;-0.72;97.27;98913.94;5143705;27;20109;-76
2024/01/10 07:51:53;;;;;;;30.85;11.65;;;;;;;-0.92;99.03;98905.06;5126975;27;20466;-77
2024/01/10 07:54:18;;;;;;;19.65;9.55;;;;;;;-0.91;100.00;98911.22;5143605;27;20015;-76
2024/01/10 07:56:44;;;;;;;20.77;9.18;;;;;;;-0.61;99.55;98896.47;5139504;27;20050;-77
2024/01/10 07:59:09;;;;;;;25.15;9.30;;;;;;;-0.20;97.24;98906.22;5153968;27;20039;-76
2024/01/10 08:01:35;;;;;;;18.90;9.15;;;;;;;0.27;93.82;98906.31;5147263;27;20160;-77
2024/01/10 08:04:00;;;;;;;17.77;8.90;;;;;;;1.03;88.17;98896.56;5143167;27;20416;-78
2024/01/10 08:06:26;;;;;;;22.13;8.40;;;;;;;1.64;81.25;98890.16;5154093;27;20022;-77
2024/01/10 08:08:52;;;;;;;17.52;8.57;;;;;;;2.01;74.71;98882.03;5153717;27;20034;-78
2024/01/10 08:11:17;;;;;;;19.38;9.63;;;;;;;0.82;75.83;98891.34;5153412;27;20409;-77
2024/01/10 08:13:43;;;;;;;27.15;10.93;;;;;;;1.22;84.39;98885.09;5153467;27;20030;-77
2024/01/10 08:16:08;;;;;;;19.90;10.23;;;;;;;1.33;78.46;98885.91;5153799;27;20034;-75
2024/01/10 08:18:34;;;;;;;24.63;11.13;;;;;;;2.00;74.14;98890.88;5150802;27;20110;-77
2024/01/10 08:21:00;;;;;;;26.13;11.63;;;;;;;2.26;71.96;98882.75;5149269;27;20540;-72
2024/01/10 08:23:26;;;;;;;29.80;12.45;;;;;;;2.61;69.37;98878.94;5147484;27;20118;-71
2024/01/10 08:25:51;;;;;;;29.67;13.88;;;;;;;2.96;67.96;98872.41;5134978;27;20133;-73
2024/01/10 08:28:17;;;;;;;34.00;13.73;;;;;;;2.50;65.29;98879.91;5149195;27;20023;-72
2024/01/10 08:30:42;;;;;;;33.13;14.90;;;;;;;0.93;71.27;98884.28;5128742;27;20541;-72
2024/01/10 08:33:08;;;;;;;27.60;13.65;;;;;;;1.59;76.35;98891.97;5148494;27;20434;-72
2024/01/10 08:35:34;;;;;;;29.10;12.80;;;;;;;2.83;73.39;98897.22;5153686;27;20044;-72
2024/01/10 08:37:59;;;;;;;25.75;11.73;;;;;;;2.42;70.46;98884.38;5134852;27;20061;-72
2024/01/10 08:40:25;;;;;;;27.05;10.70;;;;;;;3.10;69.60;98894.31;5140875;27;20018;-72
2024/01/10 08:42:54;;;;;;;28.17;13.27;;;;;;;3.50;65.68;98866.50;5123122;27;20421;-72
2024/01/10 08:45:19;;;;;;;39.67;17.50;;;;;;;4.09;62.47;98851.56;5125166;27;20520;-72
2024/01/10 08:47:45;;;;;;;51.03;16.48;;;;;;;4.55;60.16;98847.28;5146114;27;20026;-71
2024/01/10 08:50:11;;;;;;;44.47;20.35;;;;;;;4.14;59.01;98869.13;5126007;27;20065;-70
2024/01/10 08:52:39;;;;;;;38.78;16.85;;;;;;;3.95;59.95;98872.94;5144654;27;20050;-72
2024/01/10 08:55:06;;;;;;;44.65;20.73;;;;;;;4.72;59.08;98865.50;5152785;27;20023;-73
2024/01/10 08:57:32;;;;;;;32.72;16.23;;;;;;;4.65;57.02;98855.91;5137377;27;20520;-72
2024/01/10 08:59:57;;;;;;;38.63;16.75;;;;;;;3.87;58.26;98858.06;5155091;27;20066;-73
2024/01/10 09:02:23;;;;;;;33.65;17.42;;;;;;;3.98;61.41;98862.28;5140086;27;20034;-72
2024/01/10 09:04:50;;;;;;;36.55;18.27;;;;;;;5.33;57.37;98854.63;5125422;27;20033;-73
2024/01/10 09:07:18;;;;;;;36.70;16.40;;;;;;;5.66;56.25;98842.44;5151566;27;20050;-72
2024/01/10 09:09:43;;;;;;;37.90;18.90;;;;;;;6.12;54.70;98837.00;5134042;27;20129;-73
2024/01/10 09:12:09;;;;;;;35.25;16.70;;;;;;;5.42;54.73;98836.72;5151343;27;20104;-73
2024/01/10 09:14:35;;;;;;;38.25;16.88;;;;;;;4.65;56.44;98838.22;5155041;27;20065;-72
2024/01/10 09:17:04;;;;;;;31.83;16.38;;;;;;;5.11;56.75;98837.38;5132552;27;20030;-72
2024/01/10 09:19:30;;;;;;;42.00;20.63;;;;;;;5.27;57.69;98833.53;5139830;27;20106;-72
2024/01/10 09:21:57;;;;;;;51.53;24.38;;;;;;;4.44;59.76;98840.38;5137410;27;20106;-72
2024/01/10 09:24:25;;;;;;;44.03;20.95;;;;;;;4.96;58.92;98832.38;5172941;27;20023;-72
2024/01/10 09:26:51;;;;;;;37.53;20.23;;;;;;;5.23;60.43;98834.50;5154955;27;20026;-72
2024/01/10 09:29:17;;;;;;;47.85;22.42;;;;;;;5.65;55.85;98822.09;5152917;27;20051;-72
2024/01/10 09:31:43;;;;;;;36.13;18.23;;;;;;;6.33;54.53;98820.53;5130999;27;20049;-71
2024/01/10 09:34:10;;;;;;;59.95;26.48;;;;;;;6.64;55.03;98823.31;5116286;27;20106;-71
2024/01/10 09:36:36;;;;;;;38.45;20.67;;;;;;;7.03;52.75;98815.13;5164585;27;20097;-72
2024/01/10 09:39:05;;;;;;;28.23;14.73;;;;;;;7.38;49.70;98790.16;5138874;27;20027;-73
2024/01/10 09:41:32;;;;;;;19.27;10.05;;;;;;;5.67;51.12;98797.28;5116784;27;20026;-73
2024/01/10 09:43:58;;;;;;;21.33;10.88;;;;;;;4.57;55.57;98824.25;5140002;27;20034;-72
2024/01/10 09:46:23;;;;;;;19.02;10.38;;;;;;;5.27;55.29;98828.22;5128050;27;20512;-71
2024/01/10 09:48:49;;;;;;;16.88;9.10;;;;;;;5.88;53.52;98810.09;5145791;27;20026;-72
2024/01/10 09:51:15;;;;;;;21.65;9.95;;;;;;;5.99;54.22;98815.16;5127227;27;20078;-73
2024/01/10 09:53:44;;;;;;;15.00;7.97;;;;;;;6.18;53.52;98807.63;5133407;27;20034;-71
2024/01/10 09:56:10;;;;;;;18.25;7.88;;;;;;;6.24;52.21;98789.78;5116312;27;20118;-72
2024/01/10 09:58:39;;;;;;;16.58;8.57;;;;;;;7.38;49.16;98786.66;5116054;27;20409;-71
2024/01/10 10:01:06;;;;;;;15.35;7.95;;;;;;;8.01;47.94;98779.34;5129874;28;20035;-71
2024/01/10 10:03:37;;;;;;;14.52;6.90;;;;;;;8.26;48.15;98783.88;5123156;27;20123;-72
2024/01/10 10:06:03;;;;;;;11.18;6.53;;;;;;;7.52;49.19;98781.78;5125077;27;20019;-72
2024/01/10 10:08:30;;;;;;;12.20;6.30;;;;;;;6.60;50.50;98787.94;5131417;27;20481;-72
2024/01/10 10:10:55;;;;;;;10.05;6.00;;;;;;;6.98;49.77;98784.25;5129987;28;20081;-72
2024/01/10 10:13:27;;;;;;;;;;;;;;;6.75;48.41;98771.59;5112897;28;20508;-73
2024/01/10 10:16:03;;;;;;;13.13;6.68;;;;;;;8.19;47.83;98770.75;5129913;27;19911;-72
2024/01/10 10:18:31;;;;;;;32.15;17.65;;;;;;;8.37;46.61;98763.97;5110678;28;20042;-72
2024/01/10 10:21:08;;;;;;;14.65;8.38;;;;;;;8.92;45.61;98748.72;5096228;28;20474;-73
2024/01/10 10:23:34;;;;;;;15.10;7.85;;;;;;;7.97;45.78;98743.06;5121289;27;20023;-72
2024/01/10 10:26:23;;;;;;;14.48;7.63;;;;;;;7.68;47.61;98764.44;5121409;28;20407;-73
2024/01/10 10:28:50;;;;;;;20.70;9.82;;;;;;;7.40;49.42;98756.41;5112209;28;20046;-72
2024/01/10 10:31:17;;;;;;;17.52;9.02;;;;;;;6.97;51.13;98767.44;5115779;27;20141;-72
2024/01/10 10:33:43;;;;;;;16.17;8.10;;;;;;;8.23;46.94;98736.00;5115537;27;20031;-72
2024/01/10 10:36:09;;;;;;;20.63;8.75;;;;;;;7.77;47.77;98733.97;5129828;28;20027;-72
2024/01/10 10:38:37;;;;;;;14.15;8.63;;;;;;;7.65;49.27;98753.88;5129245;27;20111;-71
2024/01/10 10:41:05;;;;;;;14.98;8.55;;;;;;;8.06;48.39;98742.75;5126811;27;20022;-72
2024/01/10 10:43:35;;;;;;;14.07;8.27;;;;;;;8.49;48.09;98742.22;5116326;27;20031;-72
2024/01/10 10:46:01;;;;;;;16.77;8.32;;;;;;;7.61;48.74;98741.56;5138210;27;20494;-72
2024/01/10 10:48:32;;;;;;;16.92;8.30;;;;;;;8.03;47.12;98726.88;5112516;27;20027;-73
2024/01/10 10:51:19;;;;;;;12.90;8.05;;;;;;;8.22;47.02;98721.81;5119130;27;20090;-72
2024/01/10 10:53:45;;;;;;;15.07;7.47;;;;;;;8.78;45.64;98711.88;5109640;27;20031;-73
2024/01/10 10:56:12;;;;;;;12.40;6.32;;;;;;;9.52;45.77;98700.16;5139428;27;20030;-73
2024/01/10 10:58:40;;;;;;;9.50;5.38;;;;;;;9.39;43.23;98702.44;5124737;27;20106;-72
2024/01/10 11:01:07;;;;;;;18.63;7.07;;;;;;;9.24;43.04;98690.56;5110558;27;20039;-71
2024/01/10 11:03:38;;;;;;;14.35;7.43;;;;;;;9.23;44.99;98698.59;5131963;27;20042;-72
2024/01/10 11:06:05;;;;;;;10.90;6.75;;;;;;;8.79;45.51;98692.28;5136113;27;20091;-72
2024/01/10 11:08:35;;;;;;;12.65;6.82;;;;;;;7.56;46.18;98688.47;5119566;27;20023;-73
2024/01/10 11:11:03;;;;;;;12.35;6.65;;;;;;;8.29;47.52;98702.06;5136335;27;20027;-73
2024/01/10 11:13:48;;;;;;;16.98;8.93;;;;;;;8.25;48.05;98700.38;5119329;27;20064;-72
2024/01/10 11:16:28;;;;;;;22.35;12.07;;;;;;;9.91;43.87;98677.19;5145108;27;20026;-73
2024/01/10 11:19:12;;;;;;;22.42;11.48;;;;;;;10.33;42.78;98675.44;5148194;27;20440;-73